sensor_id;sensor_type;location;lat;lon;timestamp;P1;durP1;ratioP1;P2;durP2;ratioP2
21591;SDS011;10958;50.892;3.992;2022-08-01T00:00:12;8.35;;;2.50;;
21591;SDS011;10958;50.892;3.992;2022-08-01T00:02:39;3.97;;;2.50;;
21591;SDS011;10958;50.892;3.992;2022-08-01T00:05:06;5.28;;;2.80;;
21591;SDS011;10958;50.892;3.992;2022-08-01T00:07:33;6.18;;;2.83;;
21591;SDS011;10958;50.892;3.992;2022-08-01T00:10:00;5.20;;;2.65;;
21591;SDS011;10958;50.892;3.992;2022-08-01T00:12:26;6.65;;;2.95;;
21591;SDS011;10958;50.892;3.992;2022-08-01T00:14:52;6.07;;;3.13;;
21591;SDS011;10958;50.892;3.992;2022-08-01T00:17:18;7.18;;;3.08;;
21591;SDS011;10958;50.892;3.992;2022-08-01T00:19:43;4.97;;;2.85;;
21591;SDS011;10958;50.892;3.992;2022-08-01T00:22:09;5.00;;;2.80;;
21591;SDS011;10958;50.892;3.992;2022-08-01T00:24:35;4.43;;;2.70;;
21591;SDS011;10958;50.892;3.992;2022-08-01T00:27:00;6.03;;;3.13;;
21591;SDS011;10958;50.892;3.992;2022-08-01T00:29:26;6.45;;;2.65;;
21591;SDS011;10958;50.892;3.992;2022-08-01T00:31:52;6.32;;;3.08;;
21591;SDS011;10958;50.892;3.992;2022-08-01T00:34:17;4.93;;;2.90;;
21591;SDS011;10958;50.892;3.992;2022-08-01T00:36:43;8.32;;;2.80;;
21591;SDS011;10958;50.892;3.992;2022-08-01T00:39:08;6.35;;;3.47;;
21591;SDS011;10958;50.892;3.992;2022-08-01T00:41:34;8.73;;;3.80;;
21591;SDS011;10958;50.892;3.992;2022-08-01T00:44:06;7.93;;;3.78;;
21591;SDS011;10958;50.892;3.992;2022-08-01T00:46:32;8.38;;;4.15;;
21591;SDS011;10958;50.892;3.992;2022-08-01T00:48:58;5.78;;;3.60;;
21591;SDS011;10958;50.892;3.992;2022-08-01T00:51:24;6.50;;;3.97;;
21591;SDS011;10958;50.892;3.992;2022-08-01T00:53:51;9.85;;;4.68;;
21591;SDS011;10958;50.892;3.992;2022-08-01T00:56:18;10.65;;;4.70;;
21591;SDS011;10958;50.892;3.992;2022-08-01T00:58:48;9.73;;;4.47;;
21591;SDS011;10958;50.892;3.992;2022-08-01T01:01:14;8.27;;;4.13;;
21591;SDS011;10958;50.892;3.992;2022-08-01T01:03:41;12.27;;;4.93;;
21591;SDS011;10958;50.892;3.992;2022-08-01T01:06:18;11.65;;;5.50;;
21591;SDS011;10958;50.892;3.992;2022-08-01T01:09:12;16.00;;;6.32;;
21591;SDS011;10958;50.892;3.992;2022-08-01T01:17:18;11.63;;;6.00;;
21591;SDS011;10958;50.892;3.992;2022-08-01T01:19:48;12.73;;;5.90;;
21591;SDS011;10958;50.892;3.992;2022-08-01T01:28:14;15.50;;;6.70;;
21591;SDS011;10958;50.892;3.992;2022-08-01T01:30:45;16.05;;;6.63;;
21591;SDS011;10958;50.892;3.992;2022-08-01T01:33:14;12.43;;;6.78;;
21591;SDS011;10958;50.892;3.992;2022-08-01T01:36:03;13.18;;;6.50;;
21591;SDS011;10958;50.892;3.992;2022-08-01T01:38:32;17.67;;;7.20;;
21591;SDS011;10958;50.892;3.992;2022-08-01T01:41:01;10.68;;;6.13;;
21591;SDS011;10958;50.892;3.992;2022-08-01T01:43:29;11.35;;;5.88;;
21591;SDS011;10958;50.892;3.992;2022-08-01T01:45:55;9.93;;;5.70;;
21591;SDS011;10958;50.892;3.992;2022-08-01T01:48:21;14.10;;;6.60;;
21591;SDS011;10958;50.892;3.992;2022-08-01T01:50:50;12.55;;;5.93;;
21591;SDS011;10958;50.892;3.992;2022-08-01T01:53:17;9.82;;;5.50;;
21591;SDS011;10958;50.892;3.992;2022-08-01T01:55:45;11.20;;;5.90;;
21591;SDS011;10958;50.892;3.992;2022-08-01T01:58:13;8.63;;;5.28;;
21591;SDS011;10958;50.892;3.992;2022-08-01T02:00:41;11.13;;;5.38;;
21591;SDS011;10958;50.892;3.992;2022-08-01T02:03:09;9.52;;;5.57;;
21591;SDS011;10958;50.892;3.992;2022-08-01T02:05:36;12.27;;;6.13;;
21591;SDS011;10958;50.892;3.992;2022-08-01T02:08:03;9.75;;;6.45;;
21591;SDS011;10958;50.892;3.992;2022-08-01T02:10:30;11.35;;;7.15;;
21591;SDS011;10958;50.892;3.992;2022-08-01T02:12:57;12.07;;;8.55;;
21591;SDS011;10958;50.892;3.992;2022-08-01T02:15:24;16.20;;;8.40;;
21591;SDS011;10958;50.892;3.992;2022-08-01T02:17:53;16.40;;;10.23;;
21591;SDS011;10958;50.892;3.992;2022-08-01T02:20:21;16.10;;;11.05;;
21591;SDS011;10958;50.892;3.992;2022-08-01T02:22:49;18.30;;;10.65;;
21591;SDS011;10958;50.892;3.992;2022-08-01T02:28:01;17.90;;;10.80;;
21591;SDS011;10958;50.892;3.992;2022-08-01T02:30:32;17.52;;;10.38;;
21591;SDS011;10958;50.892;3.992;2022-08-01T02:33:03;17.55;;;10.90;;
21591;SDS011;10958;50.892;3.992;2022-08-01T02:35:35;16.83;;;11.80;;
21591;SDS011;10958;50.892;3.992;2022-08-01T02:38:03;19.30;;;11.70;;
21591;SDS011;10958;50.892;3.992;2022-08-01T02:40:32;23.08;;;12.70;;
21591;SDS011;10958;50.892;3.992;2022-08-01T02:42:59;19.25;;;12.70;;
21591;SDS011;10958;50.892;3.992;2022-08-01T02:45:28;23.20;;;12.35;;
21591;SDS011;10958;50.892;3.992;2022-08-01T02:47:57;20.55;;;13.88;;
21591;SDS011;10958;50.892;3.992;2022-08-01T02:50:26;28.90;;;13.95;;
21591;SDS011;10958;50.892;3.992;2022-08-01T02:52:54;21.83;;;14.02;;
21591;SDS011;10958;50.892;3.992;2022-08-01T02:55:22;22.30;;;13.80;;
21591;SDS011;10958;50.892;3.992;2022-08-01T02:57:48;22.75;;;14.23;;
21591;SDS011;10958;50.892;3.992;2022-08-01T03:00:16;31.05;;;15.00;;
21591;SDS011;10958;50.892;3.992;2022-08-01T03:02:42;24.88;;;13.90;;
21591;SDS011;10958;50.892;3.992;2022-08-01T03:05:10;27.38;;;14.30;;
21591;SDS011;10958;50.892;3.992;2022-08-01T03:07:37;26.70;;;14.80;;
21591;SDS011;10958;50.892;3.992;2022-08-01T03:10:05;31.55;;;15.85;;
21591;SDS011;10958;50.892;3.992;2022-08-01T03:12:31;32.28;;;16.25;;
21591;SDS011;10958;50.892;3.992;2022-08-01T03:14:59;28.15;;;16.00;;
21591;SDS011;10958;50.892;3.992;2022-08-01T03:17:28;25.48;;;15.18;;
21591;SDS011;10958;50.892;3.992;2022-08-01T03:19:58;24.05;;;14.98;;
21591;SDS011;10958;50.892;3.992;2022-08-01T03:22:27;22.98;;;13.98;;
21591;SDS011;10958;50.892;3.992;2022-08-01T03:24:55;21.20;;;14.02;;
21591;SDS011;10958;50.892;3.992;2022-08-01T03:27:24;22.92;;;13.82;;
21591;SDS011;10958;50.892;3.992;2022-08-01T03:29:50;17.60;;;12.02;;
21591;SDS011;10958;50.892;3.992;2022-08-01T03:32:17;15.18;;;10.65;;
21591;SDS011;10958;50.892;3.992;2022-08-01T03:34:44;16.38;;;11.10;;
21591;SDS011;10958;50.892;3.992;2022-08-01T03:37:15;17.00;;;10.77;;
21591;SDS011;10958;50.892;3.992;2022-08-01T03:39:49;16.20;;;10.75;;
21591;SDS011;10958;50.892;3.992;2022-08-01T03:42:20;16.60;;;10.23;;
21591;SDS011;10958;50.892;3.992;2022-08-01T03:44:57;15.60;;;9.68;;
21591;SDS011;10958;50.892;3.992;2022-08-01T03:47:29;15.45;;;9.35;;
21591;SDS011;10958;50.892;3.992;2022-08-01T03:49:57;16.27;;;9.25;;
21591;SDS011;10958;50.892;3.992;2022-08-01T03:52:24;13.23;;;8.95;;
21591;SDS011;10958;50.892;3.992;2022-08-01T03:54:53;15.90;;;9.85;;
21591;SDS011;10958;50.892;3.992;2022-08-01T03:57:21;16.15;;;9.65;;
21591;SDS011;10958;50.892;3.992;2022-08-01T03:59:48;14.38;;;9.18;;
21591;SDS011;10958;50.892;3.992;2022-08-01T04:02:14;15.55;;;9.32;;
21591;SDS011;10958;50.892;3.992;2022-08-01T04:04:41;15.85;;;8.38;;
21591;SDS011;10958;50.892;3.992;2022-08-01T04:07:27;12.52;;;8.52;;
21591;SDS011;10958;50.892;3.992;2022-08-01T04:09:54;14.63;;;8.80;;
21591;SDS011;10958;50.892;3.992;2022-08-01T04:12:21;12.90;;;8.73;;
21591;SDS011;10958;50.892;3.992;2022-08-01T04:14:47;13.93;;;8.95;;
21591;SDS011;10958;50.892;3.992;2022-08-01T04:17:13;14.82;;;9.25;;
21591;SDS011;10958;50.892;3.992;2022-08-01T04:19:40;16.08;;;9.98;;
21591;SDS011;10958;50.892;3.992;2022-08-01T04:22:06;15.77;;;9.60;;
21591;SDS011;10958;50.892;3.992;2022-08-01T04:24:33;14.18;;;9.18;;
21591;SDS011;10958;50.892;3.992;2022-08-01T04:27:01;13.82;;;9.07;;
21591;SDS011;10958;50.892;3.992;2022-08-01T04:29:30;18.58;;;9.35;;
21591;SDS011;10958;50.892;3.992;2022-08-01T04:31:57;14.52;;;8.57;;
21591;SDS011;10958;50.892;3.992;2022-08-01T04:34:26;13.38;;;8.57;;
21591;SDS011;10958;50.892;3.992;2022-08-01T04:36:55;12.23;;;8.18;;
21591;SDS011;10958;50.892;3.992;2022-08-01T04:39:23;17.42;;;8.77;;
21591;SDS011;10958;50.892;3.992;2022-08-01T04:41:55;13.50;;;8.15;;
21591;SDS011;10958;50.892;3.992;2022-08-01T04:44:23;12.43;;;8.25;;
21591;SDS011;10958;50.892;3.992;2022-08-01T04:46:50;12.35;;;8.52;;
21591;SDS011;10958;50.892;3.992;2022-08-01T04:49:19;12.77;;;7.63;;
21591;SDS011;10958;50.892;3.992;2022-08-01T04:51:52;12.27;;;7.53;;
21591;SDS011;10958;50.892;3.992;2022-08-01T04:54:25;12.05;;;7.55;;
21591;SDS011;10958;50.892;3.992;2022-08-01T04:56:52;10.63;;;6.82;;
21591;SDS011;10958;50.892;3.992;2022-08-01T04:59:27;13.50;;;6.88;;
21591;SDS011;10958;50.892;3.992;2022-08-01T05:04:36;10.45;;;6.90;;
21591;SDS011;10958;50.892;3.992;2022-08-01T05:07:03;10.15;;;6.25;;
21591;SDS011;10958;50.892;3.992;2022-08-01T05:09:29;9.65;;;6.53;;
21591;SDS011;10958;50.892;3.992;2022-08-01T05:11:56;10.25;;;6.32;;
21591;SDS011;10958;50.892;3.992;2022-08-01T05:14:26;12.68;;;6.60;;
21591;SDS011;10958;50.892;3.992;2022-08-01T05:19:17;12.55;;;6.32;;
21591;SDS011;10958;50.892;3.992;2022-08-01T05:21:43;8.70;;;6.32;;
21591;SDS011;10958;50.892;3.992;2022-08-01T05:24:09;9.45;;;6.55;;
21591;SDS011;10958;50.892;3.992;2022-08-01T05:26:35;11.68;;;6.50;;
21591;SDS011;10958;50.892;3.992;2022-08-01T05:29:01;10.73;;;6.20;;
21591;SDS011;10958;50.892;3.992;2022-08-01T05:31:26;9.82;;;6.70;;
21591;SDS011;10958;50.892;3.992;2022-08-01T05:33:53;9.57;;;6.03;;
21591;SDS011;10958;50.892;3.992;2022-08-01T05:36:18;8.80;;;6.28;;
21591;SDS011;10958;50.892;3.992;2022-08-01T05:38:44;8.93;;;6.30;;
21591;SDS011;10958;50.892;3.992;2022-08-01T05:41:10;9.38;;;6.60;;
21591;SDS011;10958;50.892;3.992;2022-08-01T05:43:35;9.50;;;6.65;;
21591;SDS011;10958;50.892;3.992;2022-08-01T05:46:01;8.82;;;5.70;;
21591;SDS011;10958;50.892;3.992;2022-08-01T05:48:27;7.05;;;5.60;;
21591;SDS011;10958;50.892;3.992;2022-08-01T05:50:53;10.88;;;6.60;;
21591;SDS011;10958;50.892;3.992;2022-08-01T05:53:19;9.85;;;5.97;;
21591;SDS011;10958;50.892;3.992;2022-08-01T05:55:45;10.32;;;6.13;;
21591;SDS011;10958;50.892;3.992;2022-08-01T05:58:11;12.88;;;6.20;;
21591;SDS011;10958;50.892;3.992;2022-08-01T06:00:37;9.90;;;6.53;;
21591;SDS011;10958;50.892;3.992;2022-08-01T06:03:03;10.00;;;6.60;;
21591;SDS011;10958;50.892;3.992;2022-08-01T06:05:28;8.02;;;6.90;;
21591;SDS011;10958;50.892;3.992;2022-08-01T06:07:54;9.73;;;6.95;;
21591;SDS011;10958;50.892;3.992;2022-08-01T06:10:20;11.85;;;6.95;;
21591;SDS011;10958;50.892;3.992;2022-08-01T06:12:45;7.10;;;6.15;;
21591;SDS011;10958;50.892;3.992;2022-08-01T06:15:11;7.20;;;5.50;;
21591;SDS011;10958;50.892;3.992;2022-08-01T06:17:37;7.47;;;5.57;;
21591;SDS011;10958;50.892;3.992;2022-08-01T06:20:04;9.05;;;5.05;;
21591;SDS011;10958;50.892;3.992;2022-08-01T06:22:31;7.78;;;5.43;;
21591;SDS011;10958;50.892;3.992;2022-08-01T06:24:57;6.35;;;5.22;;
21591;SDS011;10958;50.892;3.992;2022-08-01T06:27:22;9.77;;;5.65;;
21591;SDS011;10958;50.892;3.992;2022-08-01T06:29:49;6.60;;;5.13;;
21591;SDS011;10958;50.892;3.992;2022-08-01T06:32:18;5.60;;;4.70;;
21591;SDS011;10958;50.892;3.992;2022-08-01T06:34:44;5.45;;;4.90;;
21591;SDS011;10958;50.892;3.992;2022-08-01T06:37:10;7.13;;;5.13;;
21591;SDS011;10958;50.892;3.992;2022-08-01T06:39:38;6.00;;;5.40;;
21591;SDS011;10958;50.892;3.992;2022-08-01T06:42:03;6.47;;;5.38;;
21591;SDS011;10958;50.892;3.992;2022-08-01T06:44:29;10.43;;;6.88;;
21591;SDS011;10958;50.892;3.992;2022-08-01T06:46:54;7.70;;;6.78;;
21591;SDS011;10958;50.892;3.992;2022-08-01T06:49:23;6.30;;;5.70;;
21591;SDS011;10958;50.892;3.992;2022-08-01T06:51:49;6.45;;;5.75;;
21591;SDS011;10958;50.892;3.992;2022-08-01T06:54:15;6.13;;;5.07;;
21591;SDS011;10958;50.892;3.992;2022-08-01T06:56:41;4.90;;;4.40;;
21591;SDS011;10958;50.892;3.992;2022-08-01T06:59:07;4.22;;;3.75;;
21591;SDS011;10958;50.892;3.992;2022-08-01T07:01:33;5.75;;;3.08;;
21591;SDS011;10958;50.892;3.992;2022-08-01T07:03:59;3.47;;;2.45;;
21591;SDS011;10958;50.892;3.992;2022-08-01T07:06:25;2.92;;;2.30;;
21591;SDS011;10958;50.892;3.992;2022-08-01T07:08:51;3.78;;;2.05;;
21591;SDS011;10958;50.892;3.992;2022-08-01T07:11:18;5.90;;;2.20;;
21591;SDS011;10958;50.892;3.992;2022-08-01T07:13:44;2.55;;;1.80;;
21591;SDS011;10958;50.892;3.992;2022-08-01T07:16:10;3.83;;;1.50;;
21591;SDS011;10958;50.892;3.992;2022-08-01T07:18:37;2.95;;;1.65;;
21591;SDS011;10958;50.892;3.992;2022-08-01T07:21:02;1.85;;;1.35;;
21591;SDS011;10958;50.892;3.992;2022-08-01T07:23:28;2.60;;;1.27;;
21591;SDS011;10958;50.892;3.992;2022-08-01T07:25:54;2.78;;;1.77;;
21591;SDS011;10958;50.892;3.992;2022-08-01T07:28:19;3.63;;;1.80;;
21591;SDS011;10958;50.892;3.992;2022-08-01T07:30:45;3.90;;;1.52;;
21591;SDS011;10958;50.892;3.992;2022-08-01T07:33:11;3.65;;;2.25;;
21591;SDS011;10958;50.892;3.992;2022-08-01T07:35:37;2.70;;;1.98;;
21591;SDS011;10958;50.892;3.992;2022-08-01T07:38:04;3.10;;;2.30;;
21591;SDS011;10958;50.892;3.992;2022-08-01T07:40:31;4.68;;;2.15;;
21591;SDS011;10958;50.892;3.992;2022-08-01T07:42:57;4.40;;;2.30;;
21591;SDS011;10958;50.892;3.992;2022-08-01T07:45:22;2.85;;;1.70;;
21591;SDS011;10958;50.892;3.992;2022-08-01T07:47:49;2.03;;;1.65;;
21591;SDS011;10958;50.892;3.992;2022-08-01T07:50:15;2.50;;;1.92;;
21591;SDS011;10958;50.892;3.992;2022-08-01T07:52:41;4.75;;;1.90;;
21591;SDS011;10958;50.892;3.992;2022-08-01T07:55:07;5.03;;;3.03;;
21591;SDS011;10958;50.892;3.992;2022-08-01T07:57:34;6.22;;;3.13;;
21591;SDS011;10958;50.892;3.992;2022-08-01T08:00:00;7.72;;;5.00;;
21591;SDS011;10958;50.892;3.992;2022-08-01T08:02:26;6.68;;;4.88;;
21591;SDS011;10958;50.892;3.992;2022-08-01T08:04:51;4.50;;;3.83;;
21591;SDS011;10958;50.892;3.992;2022-08-01T08:07:17;8.45;;;6.18;;
21591;SDS011;10958;50.892;3.992;2022-08-01T08:09:43;8.15;;;6.50;;
21591;SDS011;10958;50.892;3.992;2022-08-01T08:12:09;7.28;;;6.45;;
21591;SDS011;10958;50.892;3.992;2022-08-01T08:14:35;7.03;;;6.40;;
21591;SDS011;10958;50.892;3.992;2022-08-01T08:17:00;9.68;;;8.68;;
21591;SDS011;10958;50.892;3.992;2022-08-01T08:19:26;9.40;;;8.30;;
21591;SDS011;10958;50.892;3.992;2022-08-01T08:21:52;9.80;;;6.95;;
21591;SDS011;10958;50.892;3.992;2022-08-01T08:24:17;6.28;;;5.50;;
21591;SDS011;10958;50.892;3.992;2022-08-01T08:26:46;5.43;;;4.70;;
21591;SDS011;10958;50.892;3.992;2022-08-01T08:29:13;6.72;;;4.57;;
21591;SDS011;10958;50.892;3.992;2022-08-01T08:31:39;5.00;;;4.13;;
21591;SDS011;10958;50.892;3.992;2022-08-01T08:34:05;3.63;;;3.28;;
21591;SDS011;10958;50.892;3.992;2022-08-01T08:36:31;2.55;;;2.20;;
21591;SDS011;10958;50.892;3.992;2022-08-01T08:38:57;4.38;;;1.98;;
21591;SDS011;10958;50.892;3.992;2022-08-01T08:41:25;3.40;;;1.52;;
21591;SDS011;10958;50.892;3.992;2022-08-01T08:43:51;3.25;;;2.03;;
21591;SDS011;10958;50.892;3.992;2022-08-01T08:46:18;2.30;;;2.10;;
21591;SDS011;10958;50.892;3.992;2022-08-01T08:48:45;2.67;;;2.30;;
21591;SDS011;10958;50.892;3.992;2022-08-01T08:51:11;2.40;;;2.20;;
21591;SDS011;10958;50.892;3.992;2022-08-01T08:53:41;2.92;;;2.40;;
21591;SDS011;10958;50.892;3.992;2022-08-01T08:56:08;3.90;;;2.90;;
21591;SDS011;10958;50.892;3.992;2022-08-01T08:58:38;3.55;;;3.30;;
21591;SDS011;10958;50.892;3.992;2022-08-01T09:01:06;4.28;;;3.88;;
21591;SDS011;10958;50.892;3.992;2022-08-01T09:03:35;3.47;;;3.17;;
21591;SDS011;10958;50.892;3.992;2022-08-01T09:06:01;4.47;;;3.95;;
21591;SDS011;10958;50.892;3.992;2022-08-01T09:08:27;3.30;;;3.00;;
21591;SDS011;10958;50.892;3.992;2022-08-01T09:10:53;2.95;;;2.75;;
21591;SDS011;10958;50.892;3.992;2022-08-01T09:13:19;4.20;;;3.80;;
21591;SDS011;10958;50.892;3.992;2022-08-01T09:15:45;6.30;;;4.32;;
21591;SDS011;10958;50.892;3.992;2022-08-01T09:18:36;4.05;;;3.35;;
21591;SDS011;10958;50.892;3.992;2022-08-01T09:23:41;5.25;;;4.35;;
21591;SDS011;10958;50.892;3.992;2022-08-01T09:26:10;5.05;;;4.65;;
21591;SDS011;10958;50.892;3.992;2022-08-01T09:28:37;6.95;;;5.10;;
21591;SDS011;10958;50.892;3.992;2022-08-01T09:31:07;5.90;;;5.40;;
21591;SDS011;10958;50.892;3.992;2022-08-01T09:33:51;6.80;;;6.13;;
21591;SDS011;10958;50.892;3.992;2022-08-01T09:36:17;5.78;;;5.20;;
21591;SDS011;10958;50.892;3.992;2022-08-01T09:38:44;6.68;;;5.03;;
21591;SDS011;10958;50.892;3.992;2022-08-01T09:41:10;6.20;;;5.60;;
21591;SDS011;10958;50.892;3.992;2022-08-01T09:43:36;5.90;;;5.30;;
21591;SDS011;10958;50.892;3.992;2022-08-01T09:46:09;3.15;;;2.47;;
21591;SDS011;10958;50.892;3.992;2022-08-01T09:48:38;2.90;;;1.73;;
21591;SDS011;10958;50.892;3.992;2022-08-01T09:51:27;2.40;;;1.30;;
21591;SDS011;10958;50.892;3.992;2022-08-01T09:53:54;2.60;;;1.40;;
21591;SDS011;10958;50.892;3.992;2022-08-01T09:56:21;2.40;;;1.17;;
21591;SDS011;10958;50.892;3.992;2022-08-01T09:58:51;3.58;;;1.65;;
21591;SDS011;10958;50.892;3.992;2022-08-01T10:03:34;1.63;;;1.20;;
21591;SDS011;10958;50.892;3.992;2022-08-01T10:06:00;1.67;;;1.52;;
21591;SDS011;10958;50.892;3.992;2022-08-01T10:08:46;1.92;;;1.58;;
21591;SDS011;10958;50.892;3.992;2022-08-01T10:11:13;1.48;;;1.38;;
21591;SDS011;10958;50.892;3.992;2022-08-01T10:13:39;2.65;;;1.08;;
21591;SDS011;10958;50.892;3.992;2022-08-01T10:16:05;2.38;;;1.20;;
21591;SDS011;10958;50.892;3.992;2022-08-01T10:18:32;1.30;;;1.20;;
21591;SDS011;10958;50.892;3.992;2022-08-01T10:20:59;1.77;;;1.17;;
21591;SDS011;10958;50.892;3.992;2022-08-01T10:23:26;2.08;;;0.90;;
21591;SDS011;10958;50.892;3.992;2022-08-01T10:25:55;1.40;;;1.00;;
21591;SDS011;10958;50.892;3.992;2022-08-01T10:28:23;2.20;;;1.27;;
21591;SDS011;10958;50.892;3.992;2022-08-01T10:30:51;1.52;;;1.17;;
21591;SDS011;10958;50.892;3.992;2022-08-01T10:33:18;2.08;;;1.50;;
21591;SDS011;10958;50.892;3.992;2022-08-01T10:35:46;5.07;;;1.20;;
21591;SDS011;10958;50.892;3.992;2022-08-01T10:38:12;1.58;;;1.40;;
21591;SDS011;10958;50.892;3.992;2022-08-01T10:40:38;1.30;;;0.98;;
21591;SDS011;10958;50.892;3.992;2022-08-01T10:43:05;2.22;;;1.00;;
21591;SDS011;10958;50.892;3.992;2022-08-01T10:45:32;2.05;;;1.40;;
21591;SDS011;10958;50.892;3.992;2022-08-01T10:50:49;1.55;;;1.42;;
21591;SDS011;10958;50.892;3.992;2022-08-01T10:55:46;2.67;;;1.95;;
21591;SDS011;10958;50.892;3.992;2022-08-01T10:58:13;3.70;;;1.90;;
21591;SDS011;10958;50.892;3.992;2022-08-01T11:00:44;5.97;;;2.13;;
21591;SDS011;10958;50.892;3.992;2022-08-01T11:03:10;2.25;;;1.83;;
21591;SDS011;10958;50.892;3.992;2022-08-01T11:05:35;3.85;;;1.80;;
21591;SDS011;10958;50.892;3.992;2022-08-01T11:08:09;3.15;;;2.90;;
21591;SDS011;10958;50.892;3.992;2022-08-01T11:10:45;3.47;;;3.03;;
21591;SDS011;10958;50.892;3.992;2022-08-01T11:13:12;4.22;;;2.97;;
21591;SDS011;10958;50.892;3.992;2022-08-01T11:15:39;3.20;;;2.90;;
21591;SDS011;10958;50.892;3.992;2022-08-01T11:18:30;3.45;;;3.15;;
21591;SDS011;10958;50.892;3.992;2022-08-01T11:20:56;3.72;;;3.40;;
21591;SDS011;10958;50.892;3.992;2022-08-01T11:23:27;4.40;;;4.00;;
21591;SDS011;10958;50.892;3.992;2022-08-01T11:28:19;3.63;;;3.22;;
21591;SDS011;10958;50.892;3.992;2022-08-01T11:30:51;5.80;;;3.50;;
21591;SDS011;10958;50.892;3.992;2022-08-01T11:38:38;5.40;;;4.97;;
21591;SDS011;10958;50.892;3.992;2022-08-01T11:41:16;6.25;;;5.65;;
21591;SDS011;10958;50.892;3.992;2022-08-01T11:44:03;6.53;;;4.15;;
21591;SDS011;10958;50.892;3.992;2022-08-01T11:52:00;5.85;;;5.25;;
21591;SDS011;10958;50.892;3.992;2022-08-01T11:54:48;4.70;;;3.70;;
21591;SDS011;10958;50.892;3.992;2022-08-01T11:57:19;4.38;;;4.05;;
21591;SDS011;10958;50.892;3.992;2022-08-01T11:59:57;4.80;;;4.32;;
21591;SDS011;10958;50.892;3.992;2022-08-01T12:02:24;3.72;;;3.42;;
21591;SDS011;10958;50.892;3.992;2022-08-01T12:07:49;7.18;;;4.00;;
21591;SDS011;10958;50.892;3.992;2022-08-01T12:10:16;3.75;;;2.65;;
21591;SDS011;10958;50.892;3.992;2022-08-01T12:12:45;3.35;;;2.80;;
21591;SDS011;10958;50.892;3.992;2022-08-01T12:15:16;2.75;;;2.28;;
21591;SDS011;10958;50.892;3.992;2022-08-01T12:17:44;5.53;;;2.47;;
21591;SDS011;10958;50.892;3.992;2022-08-01T12:20:15;3.13;;;2.72;;
21591;SDS011;10958;50.892;3.992;2022-08-01T12:22:45;3.20;;;2.42;;
21591;SDS011;10958;50.892;3.992;2022-08-01T12:25:12;3.35;;;2.45;;
21591;SDS011;10958;50.892;3.992;2022-08-01T12:27:40;4.47;;;2.30;;
21591;SDS011;10958;50.892;3.992;2022-08-01T12:30:07;2.45;;;2.25;;
21591;SDS011;10958;50.892;3.992;2022-08-01T12:32:35;4.53;;;2.38;;
21591;SDS011;10958;50.892;3.992;2022-08-01T12:35:04;6.65;;;2.22;;
21591;SDS011;10958;50.892;3.992;2022-08-01T12:37:30;3.90;;;2.30;;
21591;SDS011;10958;50.892;3.992;2022-08-01T12:39:59;3.55;;;2.38;;
21591;SDS011;10958;50.892;3.992;2022-08-01T12:42:25;3.40;;;2.33;;
21591;SDS011;10958;50.892;3.992;2022-08-01T12:44:51;3.22;;;2.30;;
21591;SDS011;10958;50.892;3.992;2022-08-01T12:47:18;3.08;;;2.40;;
21591;SDS011;10958;50.892;3.992;2022-08-01T12:49:45;2.83;;;2.00;;
21591;SDS011;10958;50.892;3.992;2022-08-01T12:52:12;2.05;;;1.60;;
21591;SDS011;10958;50.892;3.992;2022-08-01T12:57:46;4.30;;;2.80;;
21591;SDS011;10958;50.892;3.992;2022-08-01T13:00:24;3.70;;;2.35;;
21591;SDS011;10958;50.892;3.992;2022-08-01T13:03:07;3.88;;;1.77;;
21591;SDS011;10958;50.892;3.992;2022-08-01T13:08:13;5.35;;;1.67;;
21591;SDS011;10958;50.892;3.992;2022-08-01T13:11:00;2.90;;;1.55;;
21591;SDS011;10958;50.892;3.992;2022-08-01T13:13:37;2.97;;;1.52;;
21591;SDS011;10958;50.892;3.992;2022-08-01T13:16:07;1.73;;;1.27;;
21591;SDS011;10958;50.892;3.992;2022-08-01T13:18:34;2.67;;;1.65;;
21591;SDS011;10958;50.892;3.992;2022-08-01T13:21:07;2.60;;;1.30;;
21591;SDS011;10958;50.892;3.992;2022-08-01T13:23:34;4.05;;;1.33;;
21591;SDS011;10958;50.892;3.992;2022-08-01T13:26:00;1.20;;;1.08;;
21591;SDS011;10958;50.892;3.992;2022-08-01T13:28:26;6.22;;;1.95;;
21591;SDS011;10958;50.892;3.992;2022-08-01T13:33:21;2.17;;;1.30;;
21591;SDS011;10958;50.892;3.992;2022-08-01T13:35:48;5.75;;;1.60;;
21591;SDS011;10958;50.892;3.992;2022-08-01T13:38:15;2.88;;;1.33;;
21591;SDS011;10958;50.892;3.992;2022-08-01T13:40:40;4.30;;;1.95;;
21591;SDS011;10958;50.892;3.992;2022-08-01T13:43:06;4.70;;;1.77;;
21591;SDS011;10958;50.892;3.992;2022-08-01T13:45:31;1.70;;;1.58;;
21591;SDS011;10958;50.892;3.992;2022-08-01T13:47:58;4.88;;;1.88;;
21591;SDS011;10958;50.892;3.992;2022-08-01T13:50:24;5.82;;;2.20;;
21591;SDS011;10958;50.892;3.992;2022-08-01T13:52:50;4.28;;;1.40;;
21591;SDS011;10958;50.892;3.992;2022-08-01T13:55:15;3.17;;;1.15;;
21591;SDS011;10958;50.892;3.992;2022-08-01T13:57:41;3.00;;;1.35;;
21591;SDS011;10958;50.892;3.992;2022-08-01T14:00:08;1.92;;;1.70;;
21591;SDS011;10958;50.892;3.992;2022-08-01T14:02:34;3.28;;;1.40;;
21591;SDS011;10958;50.892;3.992;2022-08-01T14:05:00;4.28;;;1.50;;
21591;SDS011;10958;50.892;3.992;2022-08-01T14:07:26;2.75;;;1.17;;
21591;SDS011;10958;50.892;3.992;2022-08-01T14:09:52;2.17;;;1.38;;
21591;SDS011;10958;50.892;3.992;2022-08-01T14:12:18;3.42;;;1.50;;
21591;SDS011;10958;50.892;3.992;2022-08-01T14:14:44;3.85;;;1.50;;
21591;SDS011;10958;50.892;3.992;2022-08-01T14:17:10;3.05;;;1.60;;
21591;SDS011;10958;50.892;3.992;2022-08-01T14:19:35;2.47;;;1.33;;
21591;SDS011;10958;50.892;3.992;2022-08-01T14:22:01;4.72;;;1.20;;
21591;SDS011;10958;50.892;3.992;2022-08-01T14:24:27;3.00;;;1.38;;
21591;SDS011;10958;50.892;3.992;2022-08-01T14:26:53;3.70;;;1.60;;
21591;SDS011;10958;50.892;3.992;2022-08-01T14:29:18;6.07;;;1.63;;
21591;SDS011;10958;50.892;3.992;2022-08-01T14:31:44;3.17;;;1.40;;
21591;SDS011;10958;50.892;3.992;2022-08-01T14:34:10;2.67;;;1.30;;
21591;SDS011;10958;50.892;3.992;2022-08-01T14:36:37;3.72;;;1.67;;
21591;SDS011;10958;50.892;3.992;2022-08-01T14:39:03;6.28;;;1.40;;
21591;SDS011;10958;50.892;3.992;2022-08-01T14:41:29;5.13;;;1.45;;
21591;SDS011;10958;50.892;3.992;2022-08-01T14:43:55;3.22;;;1.38;;
21591;SDS011;10958;50.892;3.992;2022-08-01T14:46:20;4.05;;;1.30;;
21591;SDS011;10958;50.892;3.992;2022-08-01T14:48:46;4.57;;;1.40;;
21591;SDS011;10958;50.892;3.992;2022-08-01T14:51:14;3.33;;;1.50;;
21591;SDS011;10958;50.892;3.992;2022-08-01T14:53:40;2.65;;;1.30;;
21591;SDS011;10958;50.892;3.992;2022-08-01T14:56:07;2.35;;;1.52;;
21591;SDS011;10958;50.892;3.992;2022-08-01T14:58:33;2.60;;;1.58;;
21591;SDS011;10958;50.892;3.992;2022-08-01T15:00:58;3.22;;;1.25;;
21591;SDS011;10958;50.892;3.992;2022-08-01T15:03:26;2.80;;;1.33;;
21591;SDS011;10958;50.892;3.992;2022-08-01T15:05:52;1.60;;;1.13;;
21591;SDS011;10958;50.892;3.992;2022-08-01T15:08:18;2.78;;;1.50;;
21591;SDS011;10958;50.892;3.992;2022-08-01T15:10:43;3.35;;;1.40;;
21591;SDS011;10958;50.892;3.992;2022-08-01T15:13:09;3.20;;;1.40;;
21591;SDS011;10958;50.892;3.992;2022-08-01T15:15:35;2.38;;;1.60;;
21591;SDS011;10958;50.892;3.992;2022-08-01T15:18:00;4.32;;;1.27;;
21591;SDS011;10958;50.892;3.992;2022-08-01T15:20:26;3.35;;;1.08;;
21591;SDS011;10958;50.892;3.992;2022-08-01T15:22:52;3.35;;;1.40;;
21591;SDS011;10958;50.892;3.992;2022-08-01T15:25:18;3.53;;;1.30;;
21591;SDS011;10958;50.892;3.992;2022-08-01T15:27:44;3.30;;;1.45;;
21591;SDS011;10958;50.892;3.992;2022-08-01T15:30:10;4.40;;;1.30;;
21591;SDS011;10958;50.892;3.992;2022-08-01T15:32:36;4.28;;;1.10;;
21591;SDS011;10958;50.892;3.992;2022-08-01T15:35:03;2.85;;;1.25;;
21591;SDS011;10958;50.892;3.992;2022-08-01T15:37:30;2.63;;;1.07;;
21591;SDS011;10958;50.892;3.992;2022-08-01T15:39:57;3.67;;;1.40;;